Buoy 53592

sailwx.info

Track history (hours):
 
Tides and Currents Weather Stations Pressure Air Temp Water Temp Dewpoint Dewpoint Depression Visibility Wind Speed Wind Dir Waves Ship Positions

Drifting buoy 53592

Last reported at 2015-Sep-21 04:00 UTC. Time now 2019-Sep-16 00:22 UTC.
Position S 25°26' E 044°59'.
Warning: this ship's position is years out of date!

Barometer 1006.6 mb
Water temperature 16.1 ° C

Date/timePositionNaut miles runAvg speedWind from/ knotsBaromVisibWave heightAir tempDewpointWater temp
2015-Sep-21 04:00S 25°26' E 044°59'0 0.0 1006.6 16.1
2015-Sep-21 03:00S 25°26' E 044°59'0 0.0 1006.3 15.6
2015-Sep-21 02:00S 25°26' E 044°59'0 0.0 1006.1 16.1
2015-Sep-21 01:00S 25°26' E 044°59'0 0.0 1005.8 16.1
2015-Sep-21 00:00S 25°26' E 044°59'0 0.0 1006.2 16.1
2015-Sep-20 23:00S 25°26' E 044°59'0 0.0 1006.5 16.1
2015-Sep-20 22:00S 25°26' E 044°59'0 0.0 1007.0 15.6
2015-Sep-20 21:00S 25°26' E 044°59'0 0.0 1007.5 16.1
2015-Sep-20 20:00S 25°26' E 044°59'0 0.0 1007.7 16.1
2015-Sep-20 19:00S 25°26' E 044°59'0 0.0 1007.8 15.6
2015-Sep-20 18:00S 25°26' E 044°59'0 0.0 1008.3 16.1
2015-Sep-20 17:00S 25°26' E 044°59'1 1.3 1008.0 16.1
2015-Sep-20 16:00S 25°26' E 044°58'5 2.5 1018.2 15.6
2015-Sep-20 14:00S 25°23' E 044°54'2 1.9 1020.5 16.1
2015-Sep-20 13:00S 25°22' E 044°52'2 1.8 1017.6 16.1
2015-Sep-20 12:00S 25°21' E 044°50'1 1.3 1019.4 16.1
2015-Sep-20 11:00S 25°21' E 044°49'2 1.5 1023.7 16.1
2015-Sep-20 10:00S 25°20' E 044°47'1 0.1 1024.5 16.1
2015-Sep-19 23:00S 25°20' E 044°46'1 0.8 1024.8 23.4
2015-Sep-19 22:00S 25°20' E 044°47'1 0.6 1025.5 23.4
2015-Sep-19 21:00S 25°21' E 044°47'0 0.5 1025.7 23.4
2015-Sep-19 20:00S 25°21' E 044°48'0 0.4 1025.8 23.5
2015-Sep-19 19:00S 25°21' E 044°48'0 0.4 1025.8 23.5
2015-Sep-19 18:00S 25°21' E 044°48'0 0.4 1025.5 23.5
2015-Sep-19 17:00S 25°22' E 044°48'0 0.5 1025.0 23.5
2015-Sep-19 16:00S 25°22' E 044°49'1 0.6 1024.2 23.5
2015-Sep-19 15:00S 25°23' E 044°49'1 0.7 1023.7 23.5
2015-Sep-19 14:00S 25°23' E 044°50'1 0.7 1023.2 23.4
2015-Sep-19 13:00S 25°24' E 044°50'1 0.7 1022.5 23.3
2015-Sep-19 12:00S 25°24' E 044°50'1 0.6 1022.2 23.3
2015-Sep-19 11:00S 25°25' E 044°51'0 0.5 1022.2 23.3
2015-Sep-19 10:00S 25°25' E 044°51'0 0.2 1023.0 23.3
2015-Sep-19 09:00S 25°26' E 044°51'0 0.2 1023.2 23.2
2015-Sep-19 08:00S 25°26' E 044°51'0 0.3 1023.5 23.1
2015-Sep-19 07:00S 25°26' E 044°50'1 0.4 1023.2 23.1
2015-Sep-19 05:00S 25°25' E 044°50'0 0.3 1022.2 23.1
2015-Sep-19 04:00S 25°25' E 044°50'0 0.2 1021.9 23.1
2015-Sep-19 03:00S 25°25' E 044°50'0 0.2 1020.9 23.1
2015-Sep-19 02:00S 25°25' E 044°50'1 0.3 1020.5 23.1
2015-Sep-19 00:00S 25°25' E 044°51'0 0.3 1019.9 23.2
2015-Sep-18 23:00S 25°25' E 044°51'0 0.3 1020.0 23.2
2015-Sep-18 22:00S 25°25' E 044°51'0 0.2 1020.3 23.2
2015-Sep-18 21:00S 25°25' E 044°51'0 0.1 1020.3 23.2
2015-Sep-18 20:00S 25°25' E 044°51'0 0.2 1020.1 23.2
2015-Sep-18 19:00S 25°25' E 044°51'0 0.3 1020.2 23.2
2015-Sep-18 18:00S 25°25' E 044°51'0 0.4 1019.8 23.1
2015-Sep-18 17:00S 25°26' E 044°50'0 0.5 1019.2 23.1
2015-Sep-18 16:00S 25°26' E 044°50'1 0.6 1018.0 23.2
2015-Sep-18 15:00S 25°26' E 044°50'1 0.6 1017.4 23.2
2015-Sep-18 14:00S 25°27' E 044°50'1 0.6 1016.8 23.3
2015-Sep-18 13:00S 25°27' E 044°49'1 0.5 1016.2 23.5
2015-Sep-18 12:00S 25°28' E 044°49'1 0.6 1016.1 23.6
2015-Sep-18 11:00S 25°29' E 044°49'0 0.5 1016.5 23.6
2015-Sep-18 10:00S 25°29' E 044°49'0 0.5 1016.9 23.5
2015-Sep-18 09:00S 25°29' E 044°48'1 0.7 1017.6 23.5
2015-Sep-18 08:00S 25°29' E 044°48'1 0.7 1018.2 23.7
2015-Sep-18 07:00S 25°29' E 044°47'1 0.8 1018.7 23.4
2015-Sep-18 06:00S 25°29' E 044°46'1 0.7 1018.4 23.1
2015-Sep-18 05:00S 25°28' E 044°45'1 0.5 1017.9 23.0
2015-Sep-18 04:00S 25°28' E 044°45'0 0.3 1017.8 22.9
2015-Sep-18 03:00S 25°28' E 044°45'0 0.2 1016.8 22.9
2015-Sep-18 02:00S 25°28' E 044°44'0 0.2 1016.4 22.9
2015-Sep-18 01:00S 25°29' E 044°44'0 0.1 1015.9 22.9
2015-Sep-18 00:00S 25°29' E 044°44'0 0.2 1015.4 23.0
2015-Sep-17 23:00S 25°28' E 044°45'0 0.2 1015.7 23.0
2015-Sep-17 21:00S 25°28' E 044°45'0 0.2 1016.4 23.0
2015-Sep-17 20:00S 25°28' E 044°45'0 0.2 1016.5 23.0
2015-Sep-17 19:00S 25°28' E 044°45'0 0.1 1016.4 23.0
2015-Sep-17 18:00S 25°28' E 044°45'0 0.1 1016.3 23.1
2015-Sep-17 17:00S 25°28' E 044°45'0 0.3 1016.3 23.1
2015-Sep-17 16:00S 25°28' E 044°45'0 0.4 1015.7 23.1
2015-Sep-17 15:00S 25°29' E 044°46'1 0.7 1015.0 23.2
2015-Sep-17 14:00S 25°29' E 044°46'1 0.8 1014.1 23.2
2015-Sep-17 13:00S 25°30' E 044°46'1 0.8 1014.1 23.3
2015-Sep-17 12:00S 25°31' E 044°47'1 0.8 1013.8 23.3
2015-Sep-17 11:00S 25°31' E 044°47'1 0.6 1013.8 23.3
2015-Sep-17 10:00S 25°32' E 044°47'0 0.5 1014.9 23.4
2015-Sep-17 09:00S 25°32' E 044°47'1 0.5 1015.5 23.5
2015-Sep-17 08:00S 25°32' E 044°46'1 0.7 1016.5 23.6
2015-Sep-17 07:00S 25°32' E 044°45'1 0.8 1017.1 23.4
2015-Sep-17 06:00S 25°32' E 044°45'1 0.8 1016.8 23.1
2015-Sep-17 05:00S 25°32' E 044°44'1 0.8 1017.1 22.8
2015-Sep-17 04:00S 25°32' E 044°43'1 0.6 1016.6 22.7
2015-Sep-17 03:00S 25°31' E 044°42'0 0.3 1016.0 22.7
2015-Sep-17 02:00S 25°31' E 044°42'0 0.1 1015.6 22.7
2015-Sep-17 01:00S 25°31' E 044°42'0 0.3 1015.5 22.7
2015-Sep-17 00:00S 25°31' E 044°42'0 0.5 1015.5 22.7
2015-Sep-16 23:00S 25°31' E 044°43'1 0.6 1016.0 22.7
2015-Sep-16 22:00S 25°30' E 044°43'0 0.4 1016.6 22.7
2015-Sep-16 21:00S 25°30' E 044°44'0 0.2 1017.1 22.8
2015-Sep-16 20:00S 25°30' E 044°44'0 0.1 1017.4 22.8
2015-Sep-16 19:00S 25°30' E 044°44'0 0.3 1017.4 22.8
2015-Sep-16 18:00S 25°30' E 044°43'0 0.5 1017.4 22.8
2015-Sep-16 17:00S 25°30' E 044°43'0 0.4 1017.2 22.9
2015-Sep-16 16:00S 25°30' E 044°42'0 0.4 1016.7 23.0
2015-Sep-16 15:00S 25°31' E 044°42'0 0.4 1015.9 23.1
2015-Sep-16 14:00S 25°31' E 044°42'0 0.5 1015.8 23.1
2015-Sep-16 13:00S 25°31' E 044°41'0 0.4 1016.0 23.2
2015-Sep-16 12:00S 25°32' E 044°41'0 0.4 1015.9 23.2
2015-Sep-16 11:00S 25°32' E 044°41'0 0.2 1016.3 23.2
2015-Sep-16 10:00S 25°33' E 044°41'0 0.2 1016.3 23.2
2015-Sep-16 09:00S 25°33' E 044°41'0 0.3 1017.1 23.2
2015-Sep-16 08:00S 25°33' E 044°41'0 0.3 1017.9 23.2
2015-Sep-16 07:00S 25°32' E 044°41'0 0.3 1018.4 22.8
2015-Sep-16 06:00S 25°32' E 044°40'0 0.4 1018.6 22.6
2015-Sep-16 05:00S 25°32' E 044°40'0 0.3 1018.3 22.5
2015-Sep-16 04:00S 25°32' E 044°40'0 0.2 1017.9 22.5
2015-Sep-16 03:00S 25°31' E 044°40'0 0.2 1017.6 22.5
2015-Sep-16 02:00S 25°31' E 044°40'0 0.3 1017.2 22.5
2015-Sep-16 01:00S 25°31' E 044°40'1 0.6 1017.3 22.5
2015-Sep-16 00:00S 25°31' E 044°41'1 0.9 1017.6 22.5
2015-Sep-15 23:00S 25°32' E 044°42'1 1.0 1018.1 22.5
2015-Sep-15 22:00S 25°32' E 044°43'1 1.2 1018.9 22.5
2015-Sep-15 21:00S 25°32' E 044°44'1 1.0 1019.3 22.5
2015-Sep-15 20:00S 25°32' E 044°45'1 0.9 1019.6 22.5
2015-Sep-15 19:00S 25°32' E 044°46'1 0.7 1020.3 22.5
2015-Sep-15 18:00S 25°32' E 044°47'1 0.5 1020.1 22.5
2015-Sep-15 17:00S 25°32' E 044°48'0 0.4 1020.1 22.5
2015-Sep-15 16:00S 25°33' E 044°48'1 0.6 1020.0 22.5
2015-Sep-15 15:00S 25°33' E 044°49'1 0.8 1019.8 22.5
2015-Sep-15 14:00S 25°33' E 044°50'1 1.1 1020.1 22.5
2015-Sep-15 13:00S 25°34' E 044°51'1 1.4 1020.3 22.5
2015-Sep-15 12:00S 25°34' E 044°52'2 1.6 1020.5 22.5
2015-Sep-15 11:00S 25°35' E 044°54'2 1.7 1021.0 22.5
2015-Sep-15 10:00S 25°36' E 044°55'1 1.5 1022.0 22.4
2015-Sep-15 09:00S 25°36' E 044°57'1 0.9 1023.1 22.4
2015-Sep-15 08:00S 25°36' E 044°58'0 0.5 1023.9 22.4
2015-Sep-15 07:00S 25°37' E 044°58'0 0.1 1024.7 22.4
2015-Sep-15 06:00S 25°37' E 044°58'0 0.1 1025.2 22.4
2015-Sep-15 05:00S 25°37' E 044°58'0 0.2 1025.2 22.3
2015-Sep-15 04:00S 25°37' E 044°58'0 0.1 1024.9 22.4
2015-Sep-15 03:00S 25°37' E 044°58'0 0.4 1024.5 22.4
2015-Sep-15 02:00S 25°37' E 044°59'1 0.8 1024.3 22.4
2015-Sep-15 01:00S 25°37' E 044°59'1 1.2 1024.0 22.4
2015-Sep-15 00:00S 25°38' E 045°00'1 1.5 1024.2 22.4
2015-Sep-14 23:00S 25°39' E 045°02'1 1.4 1024.6 22.4
2015-Sep-14 22:00S 25°39' E 045°03'1 1.2 1025.1 22.5
2015-Sep-14 21:00S 25°40' E 045°05'1 0.7 1025.6 22.5
2015-Sep-14 20:00S 25°40' E 045°05'0 0.3 1025.7 22.5
2015-Sep-14 19:00S 25°40' E 045°05'0 0.3 1025.8 22.5
2015-Sep-14 18:00S 25°40' E 045°05'1 0.5 1025.9 22.5
2015-Sep-14 17:00S 25°41' E 045°05'0 0.4 1025.8 22.4
2015-Sep-14 16:00S 25°41' E 045°04'0 0.2 1025.3 22.4
2015-Sep-14 15:00S 25°41' E 045°04'0 0.4 1024.8 22.4
2015-Sep-14 14:00S 25°41' E 045°04'1 0.9 1024.3 22.4
2015-Sep-14 13:00S 25°42' E 045°05'1 1.2 1024.2 22.4
2015-Sep-14 12:00S 25°42' E 045°06'2 1.5 1024.6 22.4
2015-Sep-14 11:00S 25°43' E 045°08'1 1.4 1025.1 22.4
2015-Sep-14 10:00S 25°44' E 045°09'1 1.0 1024.3 22.4
2015-Sep-14 09:00S 25°44' E 045°10'1 0.7 1024.8 22.4
2015-Sep-14 08:00S 25°45' E 045°10'1 0.6 1025.9 22.4
2015-Sep-14 07:00S 25°46' E 045°10'1 0.7 1025.4 22.3
2015-Sep-14 06:00S 25°46' E 045°09'1 0.8 1024.8 22.3
2015-Sep-14 05:00S 25°46' E 045°08'1 1.0 1025.1 22.3
2015-Sep-14 04:00S 25°46' E 045°07'1 0.6 1024.2 22.3
2015-Sep-14 03:00S 25°47' E 045°07'0 0.2 1023.4 22.3
2015-Sep-14 02:00S 25°47' E 045°07'0 0.3 1023.3 22.3
2015-Sep-14 01:00S 25°47' E 045°07'1 0.8 1023.2 22.3
2015-Sep-14 00:00S 25°47' E 045°08'1 0.9 1023.7 22.4
2015-Sep-13 23:00S 25°48' E 045°09'1 1.0 1024.2 22.4
2015-Sep-13 22:00S 25°48' E 045°10'1 0.9 1024.7 22.4
2015-Sep-13 21:00S 25°48' E 045°10'0 0.5 1024.3 22.5
2015-Sep-13 20:00S 25°49' E 045°11'0 0.2 1024.2 22.5
2015-Sep-13 19:00S 25°49' E 045°11'0 0.3 1024.5 22.5
2015-Sep-13 18:00S 25°49' E 045°11'1 0.5 1024.4 22.5
2015-Sep-13 17:00S 25°49' E 045°10'0 0.4 1024.0 22.5
2015-Sep-13 16:00S 25°49' E 045°10'0 0.1 1023.3 22.6
2015-Sep-13 15:00S 25°49' E 045°10'1 0.7 1022.6 22.7
2015-Sep-13 14:00S 25°50' E 045°10'1 1.0 1022.3 22.8
2015-Sep-13 13:00S 25°50' E 045°12'1 1.4 1022.1 22.8
2015-Sep-13 12:00S 25°50' E 045°13'2 1.5 1021.8 22.8
2015-Sep-13 11:00S 25°51' E 045°15'1 1.5 1022.5 22.9
2015-Sep-13 10:00S 25°52' E 045°16'1 1.3 1023.0 22.9
2015-Sep-13 09:00S 25°53' E 045°17'1 1.2 1022.9 22.9
2015-Sep-13 08:00S 25°54' E 045°18'1 1.0 1023.7 23.0
2015-Sep-13 07:00S 25°55' E 045°18'1 1.0 1023.7 23.0
2015-Sep-13 06:00S 25°56' E 045°17'1 1.2 1023.2 23.1
2015-Sep-13 05:00S 25°57' E 045°17'1 1.1 1022.7 23.1
2015-Sep-13 04:00S 25°58' E 045°16'1 0.9 1022.1 23.1
2015-Sep-13 03:00S 25°58' E 045°15'1 0.7 1021.1 23.2
2015-Sep-13 02:00S 25°59' E 045°15'1 0.7 1021.0 23.2
2015-Sep-13 01:00S 25°60' E 045°15'2 1.1 1020.5 23.2
2015-Sep-12 23:00S 26°02' E 045°16'1 1.3 1021.2 23.2
2015-Sep-12 22:00S 26°03' E 045°16'1 1.3 1021.6 23.3
2015-Sep-12 21:00S 26°04' E 045°16'1 1.4 1021.8 23.3
2015-Sep-12 20:00S 26°06' E 045°16'2 1.7 1022.3 23.4
2015-Sep-12 19:00S 26°07' E 045°15'2 1.7 1022.1 23.4
2015-Sep-12 18:00S 26°08' E 045°14'2 1.9 1022.2 23.4
2015-Sep-12 17:00S 26°10' E 045°12'2 1.7 1021.6 23.4
2015-Sep-12 16:00S 26°11' E 045°11'2 1.7 1020.6 23.4
2015-Sep-12 15:00S 26°12' E 045°09'2 1.2 1020.2 23.5
2015-Sep-12 13:00S 26°13' E 045°07'0 0.5 1019.5 23.4
2015-Sep-12 12:00S 26°13' E 045°07'0 0.4 1019.4 23.2
2015-Sep-12 11:00S 26°14' E 045°07'1 0.7 1019.5 23.1
2015-Sep-12 10:00S 26°14' E 045°07'1 0.9 1020.0 23.0
2015-Sep-12 09:00S 26°15' E 045°08'1 1.0 1020.3 22.9
2015-Sep-12 08:00S 26°16' E 045°08'3 1.4 1020.6 22.8
2015-Sep-12 06:00S 26°19' E 045°08'1 1.4 1020.5 22.7
2015-Sep-12 05:00S 26°20' E 045°08'1 1.4 1020.1 22.6
2015-Sep-12 04:00S 26°21' E 045°07'1 1.1 1019.2 22.6
2015-Sep-12 03:00S 26°22' E 045°07'1 0.6 1018.0 22.6
2015-Sep-12 02:00S 26°23' E 045°06'1 0.5 1017.1 22.8
2015-Sep-12 01:00S 26°23' E 045°07'1 1.0 1016.9 22.9
2015-Sep-12 00:00S 26°23' E 045°08'1 1.5 1016.7 22.9
2015-Sep-11 23:00S 26°24' E 045°10'2 2.3 1016.5 22.9
2015-Sep-11 22:00S 26°25' E 045°12'2 1.9 1016.4 23.1
2015-Sep-11 21:00S 26°26' E 045°14'1 1.2 1016.3 23.3
2015-Sep-11 20:00S 26°27' E 045°15'1 0.7 1015.9 23.4
2015-Sep-11 19:00S 26°27' E 045°15'1 0.6 1015.7 23.5
2015-Sep-11 18:00S 26°27' E 045°16'1 0.8 1015.6 23.5
2015-Sep-11 17:00S 26°27' E 045°17'0 0.4 1015.7 23.5
2015-Sep-11 16:00S 26°27' E 045°17'0 0.5 1015.4 23.5
2015-Sep-11 15:00S 26°26' E 045°17'1 1.1 1015.1 23.7
2015-Sep-11 14:00S 26°26' E 045°18'1 1.4 1014.7 23.8
2015-Sep-11 13:00S 26°25' E 045°20'2 1.8 1014.1 23.7
2015-Sep-11 12:00S 26°25' E 045°21'2 2.0 1014.7 23.7
2015-Sep-11 11:00S 26°24' E 045°24'2 2.2 1015.4 24.0
2015-Sep-11 10:00S 26°24' E 045°26'2 1.8 1016.4 23.9
2015-Sep-11 09:00S 26°24' E 045°28'1 1.1 1017.2 23.5
2015-Sep-11 08:00S 26°23' E 045°29'1 0.7 1018.0 23.5
2015-Sep-11 07:00S 26°23' E 045°30'1 0.5 1018.8 23.3
2015-Sep-11 06:00S 26°23' E 045°30'1 0.9 1018.9 23.1
2015-Sep-11 05:00S 26°22' E 045°31'1 1.2 1018.7 23.1
2015-Sep-11 04:00S 26°22' E 045°33'   1018.5 23.0
Track history (hours):
 
Tides and Currents Weather Stations Pressure Air Temp Water Temp Dewpoint Dewpoint Depression Visibility Wind Speed Wind Dir Waves Ship Positions

Drifting buoy 53592

Last reported at 2015-Sep-21 04:00 UTC. Time now 2019-Sep-16 00:22 UTC.
Position S 25°26' E 044°59'.
Warning: this ship's position is years out of date!

Barometer 1006.6 mb
Water temperature 16.1 ° C

Date/timePositionNaut miles runAvg speedWind from/ knotsBaromVisibWave heightAir tempDewpointWater temp
2015-Sep-21 04:00S 25°26' E 044°59'0 0.0 1006.6 16.1
2015-Sep-21 03:00S 25°26' E 044°59'0 0.0 1006.3 15.6
2015-Sep-21 02:00S 25°26' E 044°59'0 0.0 1006.1 16.1
2015-Sep-21 01:00S 25°26' E 044°59'0 0.0 1005.8 16.1
2015-Sep-21 00:00S 25°26' E 044°59'0 0.0 1006.2 16.1
2015-Sep-20 23:00S 25°26' E 044°59'0 0.0 1006.5 16.1
2015-Sep-20 22:00S 25°26' E 044°59'0 0.0 1007.0 15.6
2015-Sep-20 21:00S 25°26' E 044°59'0 0.0 1007.5 16.1
2015-Sep-20 20:00S 25°26' E 044°59'0 0.0 1007.7 16.1
2015-Sep-20 19:00S 25°26' E 044°59'0 0.0 1007.8 15.6
2015-Sep-20 18:00S 25°26' E 044°59'0 0.0 1008.3 16.1
2015-Sep-20 17:00S 25°26' E 044°59'1 1.3 1008.0 16.1
2015-Sep-20 16:00S 25°26' E 044°58'5 2.5 1018.2 15.6
2015-Sep-20 14:00S 25°23' E 044°54'2 1.9 1020.5 16.1
2015-Sep-20 13:00S 25°22' E 044°52'2 1.8 1017.6 16.1
2015-Sep-20 12:00S 25°21' E 044°50'1 1.3 1019.4 16.1
2015-Sep-20 11:00S 25°21' E 044°49'2 1.5 1023.7 16.1
2015-Sep-20 10:00S 25°20' E 044°47'1 0.1 1024.5 16.1
2015-Sep-19 23:00S 25°20' E 044°46'1 0.8 1024.8 23.4
2015-Sep-19 22:00S 25°20' E 044°47'1 0.6 1025.5 23.4
2015-Sep-19 21:00S 25°21' E 044°47'0 0.5 1025.7 23.4
2015-Sep-19 20:00S 25°21' E 044°48'0 0.4 1025.8 23.5
2015-Sep-19 19:00S 25°21' E 044°48'0 0.4 1025.8 23.5
2015-Sep-19 18:00S 25°21' E 044°48'0 0.4 1025.5 23.5
2015-Sep-19 17:00S 25°22' E 044°48'0 0.5 1025.0 23.5
2015-Sep-19 16:00S 25°22' E 044°49'1 0.6 1024.2 23.5
2015-Sep-19 15:00S 25°23' E 044°49'1 0.7 1023.7 23.5
2015-Sep-19 14:00S 25°23' E 044°50'1 0.7 1023.2 23.4
2015-Sep-19 13:00S 25°24' E 044°50'1 0.7 1022.5 23.3
2015-Sep-19 12:00S 25°24' E 044°50'1 0.6 1022.2 23.3
2015-Sep-19 11:00S 25°25' E 044°51'0 0.5 1022.2 23.3
2015-Sep-19 10:00S 25°25' E 044°51'0 0.2 1023.0 23.3
2015-Sep-19 09:00S 25°26' E 044°51'0 0.2 1023.2 23.2
2015-Sep-19 08:00S 25°26' E 044°51'0 0.3 1023.5 23.1
2015-Sep-19 07:00S 25°26' E 044°50'1 0.4 1023.2 23.1
2015-Sep-19 05:00S 25°25' E 044°50'0 0.3 1022.2 23.1
2015-Sep-19 04:00S 25°25' E 044°50'0 0.2 1021.9 23.1
2015-Sep-19 03:00S 25°25' E 044°50'0 0.2 1020.9 23.1
2015-Sep-19 02:00S 25°25' E 044°50'1 0.3 1020.5 23.1
2015-Sep-19 00:00S 25°25' E 044°51'0 0.3 1019.9 23.2
2015-Sep-18 23:00S 25°25' E 044°51'0 0.3 1020.0 23.2
2015-Sep-18 22:00S 25°25' E 044°51'0 0.2 1020.3 23.2
2015-Sep-18 21:00S 25°25' E 044°51'0 0.1 1020.3 23.2
2015-Sep-18 20:00S 25°25' E 044°51'0 0.2 1020.1 23.2
2015-Sep-18 19:00S 25°25' E 044°51'0 0.3 1020.2 23.2
2015-Sep-18 18:00S 25°25' E 044°51'0 0.4 1019.8 23.1
2015-Sep-18 17:00S 25°26' E 044°50'0 0.5 1019.2 23.1
2015-Sep-18 16:00S 25°26' E 044°50'1 0.6 1018.0 23.2
2015-Sep-18 15:00S 25°26' E 044°50'1 0.6 1017.4 23.2
2015-Sep-18 14:00S 25°27' E 044°50'1 0.6 1016.8 23.3
2015-Sep-18 13:00S 25°27' E 044°49'1 0.5 1016.2 23.5
2015-Sep-18 12:00S 25°28' E 044°49'1 0.6 1016.1 23.6
2015-Sep-18 11:00S 25°29' E 044°49'0 0.5 1016.5 23.6
2015-Sep-18 10:00S 25°29' E 044°49'0 0.5 1016.9 23.5
2015-Sep-18 09:00S 25°29' E 044°48'1 0.7 1017.6 23.5
2015-Sep-18 08:00S 25°29' E 044°48'1 0.7 1018.2 23.7
2015-Sep-18 07:00S 25°29' E 044°47'1 0.8 1018.7 23.4
2015-Sep-18 06:00S 25°29' E 044°46'1 0.7 1018.4 23.1
2015-Sep-18 05:00S 25°28' E 044°45'1 0.5 1017.9 23.0
2015-Sep-18 04:00S 25°28' E 044°45'0 0.3 1017.8 22.9
2015-Sep-18 03:00S 25°28' E 044°45'0 0.2 1016.8 22.9
2015-Sep-18 02:00S 25°28' E 044°44'0 0.2 1016.4 22.9
2015-Sep-18 01:00S 25°29' E 044°44'0 0.1 1015.9 22.9
2015-Sep-18 00:00S 25°29' E 044°44'0 0.2 1015.4 23.0
2015-Sep-17 23:00S 25°28' E 044°45'0 0.2 1015.7 23.0
2015-Sep-17 21:00S 25°28' E 044°45'0 0.2 1016.4 23.0
2015-Sep-17 20:00S 25°28' E 044°45'0 0.2 1016.5 23.0
2015-Sep-17 19:00S 25°28' E 044°45'0 0.1 1016.4 23.0
2015-Sep-17 18:00S 25°28' E 044°45'0 0.1 1016.3 23.1
2015-Sep-17 17:00S 25°28' E 044°45'0 0.3 1016.3 23.1
2015-Sep-17 16:00S 25°28' E 044°45'0 0.4 1015.7 23.1
2015-Sep-17 15:00S 25°29' E 044°46'1 0.7 1015.0 23.2
2015-Sep-17 14:00S 25°29' E 044°46'1 0.8 1014.1 23.2
2015-Sep-17 13:00S 25°30' E 044°46'1 0.8 1014.1 23.3
2015-Sep-17 12:00S 25°31' E 044°47'1 0.8 1013.8 23.3
2015-Sep-17 11:00S 25°31' E 044°47'1 0.6 1013.8 23.3
2015-Sep-17 10:00S 25°32' E 044°47'0 0.5 1014.9 23.4
2015-Sep-17 09:00S 25°32' E 044°47'1 0.5 1015.5 23.5
2015-Sep-17 08:00S 25°32' E 044°46'1 0.7 1016.5 23.6
2015-Sep-17 07:00S 25°32' E 044°45'1 0.8 1017.1 23.4
2015-Sep-17 06:00S 25°32' E 044°45'1 0.8 1016.8 23.1
2015-Sep-17 05:00S 25°32' E 044°44'1 0.8 1017.1 22.8
2015-Sep-17 04:00S 25°32' E 044°43'1 0.6 1016.6 22.7
2015-Sep-17 03:00S 25°31' E 044°42'0 0.3 1016.0 22.7
2015-Sep-17 02:00S 25°31' E 044°42'0 0.1 1015.6 22.7
2015-Sep-17 01:00S 25°31' E 044°42'0 0.3 1015.5 22.7
2015-Sep-17 00:00S 25°31' E 044°42'0 0.5 1015.5 22.7
2015-Sep-16 23:00S 25°31' E 044°43'1 0.6 1016.0 22.7
2015-Sep-16 22:00S 25°30' E 044°43'0 0.4 1016.6 22.7
2015-Sep-16 21:00S 25°30' E 044°44'0 0.2 1017.1 22.8
2015-Sep-16 20:00S 25°30' E 044°44'0 0.1 1017.4 22.8
2015-Sep-16 19:00S 25°30' E 044°44'0 0.3 1017.4 22.8
2015-Sep-16 18:00S 25°30' E 044°43'0 0.5 1017.4 22.8
2015-Sep-16 17:00S 25°30' E 044°43'0 0.4 1017.2 22.9
2015-Sep-16 16:00S 25°30' E 044°42'0 0.4 1016.7 23.0
2015-Sep-16 15:00S 25°31' E 044°42'0 0.4 1015.9 23.1
2015-Sep-16 14:00S 25°31' E 044°42'0 0.5 1015.8 23.1
2015-Sep-16 13:00S 25°31' E 044°41'0 0.4 1016.0 23.2
2015-Sep-16 12:00S 25°32' E 044°41'0 0.4 1015.9 23.2
2015-Sep-16 11:00S 25°32' E 044°41'0 0.2 1016.3 23.2
2015-Sep-16 10:00S 25°33' E 044°41'0 0.2 1016.3 23.2
2015-Sep-16 09:00S 25°33' E 044°41'0 0.3 1017.1 23.2
2015-Sep-16 08:00S 25°33' E 044°41'0 0.3 1017.9 23.2
2015-Sep-16 07:00S 25°32' E 044°41'0 0.3 1018.4 22.8
2015-Sep-16 06:00S 25°32' E 044°40'0 0.4 1018.6 22.6
2015-Sep-16 05:00S 25°32' E 044°40'0 0.3 1018.3 22.5
2015-Sep-16 04:00S 25°32' E 044°40'0 0.2 1017.9 22.5
2015-Sep-16 03:00S 25°31' E 044°40'0 0.2 1017.6 22.5
2015-Sep-16 02:00S 25°31' E 044°40'0 0.3 1017.2 22.5
2015-Sep-16 01:00S 25°31' E 044°40'1 0.6 1017.3 22.5
2015-Sep-16 00:00S 25°31' E 044°41'1 0.9 1017.6 22.5
2015-Sep-15 23:00S 25°32' E 044°42'1 1.0 1018.1 22.5
2015-Sep-15 22:00S 25°32' E 044°43'1 1.2 1018.9 22.5
2015-Sep-15 21:00S 25°32' E 044°44'1 1.0 1019.3 22.5
2015-Sep-15 20:00S 25°32' E 044°45'1 0.9 1019.6 22.5
2015-Sep-15 19:00S 25°32' E 044°46'1 0.7 1020.3 22.5
2015-Sep-15 18:00S 25°32' E 044°47'1 0.5 1020.1 22.5
2015-Sep-15 17:00S 25°32' E 044°48'0 0.4 1020.1 22.5
2015-Sep-15 16:00S 25°33' E 044°48'1 0.6 1020.0 22.5
2015-Sep-15 15:00S 25°33' E 044°49'1 0.8 1019.8 22.5
2015-Sep-15 14:00S 25°33' E 044°50'1 1.1 1020.1 22.5
2015-Sep-15 13:00S 25°34' E 044°51'1 1.4 1020.3 22.5
2015-Sep-15 12:00S 25°34' E 044°52'2 1.6 1020.5 22.5
2015-Sep-15 11:00S 25°35' E 044°54'2 1.7 1021.0 22.5
2015-Sep-15 10:00S 25°36' E 044°55'1 1.5 1022.0 22.4
2015-Sep-15 09:00S 25°36' E 044°57'1 0.9 1023.1 22.4
2015-Sep-15 08:00S 25°36' E 044°58'0 0.5 1023.9 22.4
2015-Sep-15 07:00S 25°37' E 044°58'0 0.1 1024.7 22.4
2015-Sep-15 06:00S 25°37' E 044°58'0 0.1 1025.2 22.4
2015-Sep-15 05:00S 25°37' E 044°58'0 0.2 1025.2 22.3
2015-Sep-15 04:00S 25°37' E 044°58'0 0.1 1024.9 22.4
2015-Sep-15 03:00S 25°37' E 044°58'0 0.4 1024.5 22.4
2015-Sep-15 02:00S 25°37' E 044°59'1 0.8 1024.3 22.4
2015-Sep-15 01:00S 25°37' E 044°59'1 1.2 1024.0 22.4
2015-Sep-15 00:00S 25°38' E 045°00'1 1.5 1024.2 22.4
2015-Sep-14 23:00S 25°39' E 045°02'1 1.4 1024.6 22.4
2015-Sep-14 22:00S 25°39' E 045°03'1 1.2 1025.1 22.5
2015-Sep-14 21:00S 25°40' E 045°05'1 0.7 1025.6 22.5
2015-Sep-14 20:00S 25°40' E 045°05'0 0.3 1025.7 22.5
2015-Sep-14 19:00S 25°40' E 045°05'0 0.3 1025.8 22.5
2015-Sep-14 18:00S 25°40' E 045°05'1 0.5 1025.9 22.5
2015-Sep-14 17:00S 25°41' E 045°05'0 0.4 1025.8 22.4
2015-Sep-14 16:00S 25°41' E 045°04'0 0.2 1025.3 22.4
2015-Sep-14 15:00S 25°41' E 045°04'0 0.4 1024.8 22.4
2015-Sep-14 14:00S 25°41' E 045°04'1 0.9 1024.3 22.4
2015-Sep-14 13:00S 25°42' E 045°05'1 1.2 1024.2 22.4
2015-Sep-14 12:00S 25°42' E 045°06'2 1.5 1024.6 22.4
2015-Sep-14 11:00S 25°43' E 045°08'1 1.4 1025.1 22.4
2015-Sep-14 10:00S 25°44' E 045°09'1 1.0 1024.3 22.4
2015-Sep-14 09:00S 25°44' E 045°10'1 0.7 1024.8 22.4
2015-Sep-14 08:00S 25°45' E 045°10'1 0.6 1025.9 22.4
2015-Sep-14 07:00S 25°46' E 045°10'1 0.7 1025.4 22.3
2015-Sep-14 06:00S 25°46' E 045°09'1 0.8 1024.8 22.3
2015-Sep-14 05:00S 25°46' E 045°08'1 1.0 1025.1 22.3
2015-Sep-14 04:00S 25°46' E 045°07'1 0.6 1024.2 22.3
2015-Sep-14 03:00S 25°47' E 045°07'0 0.2 1023.4 22.3
2015-Sep-14 02:00S 25°47' E 045°07'0 0.3 1023.3 22.3
2015-Sep-14 01:00S 25°47' E 045°07'1 0.8 1023.2 22.3
2015-Sep-14 00:00S 25°47' E 045°08'1 0.9 1023.7 22.4
2015-Sep-13 23:00S 25°48' E 045°09'1 1.0 1024.2 22.4
2015-Sep-13 22:00S 25°48' E 045°10'1 0.9 1024.7 22.4
2015-Sep-13 21:00S 25°48' E 045°10'0 0.5 1024.3 22.5
2015-Sep-13 20:00S 25°49' E 045°11'0 0.2 1024.2 22.5
2015-Sep-13 19:00S 25°49' E 045°11'0 0.3 1024.5 22.5
2015-Sep-13 18:00S 25°49' E 045°11'1 0.5 1024.4 22.5
2015-Sep-13 17:00S 25°49' E 045°10'0 0.4 1024.0 22.5
2015-Sep-13 16:00S 25°49' E 045°10'0 0.1 1023.3 22.6
2015-Sep-13 15:00S 25°49' E 045°10'1 0.7 1022.6 22.7
2015-Sep-13 14:00S 25°50' E 045°10'1 1.0 1022.3 22.8
2015-Sep-13 13:00S 25°50' E 045°12'1 1.4 1022.1 22.8
2015-Sep-13 12:00S 25°50' E 045°13'2 1.5 1021.8 22.8
2015-Sep-13 11:00S 25°51' E 045°15'1 1.5 1022.5 22.9
2015-Sep-13 10:00S 25°52' E 045°16'1 1.3 1023.0 22.9
2015-Sep-13 09:00S 25°53' E 045°17'1 1.2 1022.9 22.9
2015-Sep-13 08:00S 25°54' E 045°18'1 1.0 1023.7 23.0
2015-Sep-13 07:00S 25°55' E 045°18'1 1.0 1023.7 23.0
2015-Sep-13 06:00S 25°56' E 045°17'1 1.2 1023.2 23.1
2015-Sep-13 05:00S 25°57' E 045°17'1 1.1 1022.7 23.1
2015-Sep-13 04:00S 25°58' E 045°16'1 0.9 1022.1 23.1
2015-Sep-13 03:00S 25°58' E 045°15'1 0.7 1021.1 23.2
2015-Sep-13 02:00S 25°59' E 045°15'1 0.7 1021.0 23.2
2015-Sep-13 01:00S 25°60' E 045°15'2 1.1 1020.5 23.2
2015-Sep-12 23:00S 26°02' E 045°16'1 1.3 1021.2 23.2
2015-Sep-12 22:00S 26°03' E 045°16'1 1.3 1021.6 23.3
2015-Sep-12 21:00S 26°04' E 045°16'1 1.4 1021.8 23.3
2015-Sep-12 20:00S 26°06' E 045°16'2 1.7 1022.3 23.4
2015-Sep-12 19:00S 26°07' E 045°15'2 1.7 1022.1 23.4
2015-Sep-12 18:00S 26°08' E 045°14'2 1.9 1022.2 23.4
2015-Sep-12 17:00S 26°10' E 045°12'2 1.7 1021.6 23.4
2015-Sep-12 16:00S 26°11' E 045°11'2 1.7 1020.6 23.4
2015-Sep-12 15:00S 26°12' E 045°09'2 1.2 1020.2 23.5
2015-Sep-12 13:00S 26°13' E 045°07'0 0.5 1019.5 23.4
2015-Sep-12 12:00S 26°13' E 045°07'0 0.4 1019.4 23.2
2015-Sep-12 11:00S 26°14' E 045°07'1 0.7 1019.5 23.1
2015-Sep-12 10:00S 26°14' E 045°07'1 0.9 1020.0 23.0
2015-Sep-12 09:00S 26°15' E 045°08'1 1.0 1020.3 22.9
2015-Sep-12 08:00S 26°16' E 045°08'3 1.4 1020.6 22.8
2015-Sep-12 06:00S 26°19' E 045°08'1 1.4 1020.5 22.7
2015-Sep-12 05:00S 26°20' E 045°08'1 1.4 1020.1 22.6
2015-Sep-12 04:00S 26°21' E 045°07'1 1.1 1019.2 22.6
2015-Sep-12 03:00S 26°22' E 045°07'1 0.6 1018.0 22.6
2015-Sep-12 02:00S 26°23' E 045°06'1 0.5 1017.1 22.8
2015-Sep-12 01:00S 26°23' E 045°07'1 1.0 1016.9 22.9
2015-Sep-12 00:00S 26°23' E 045°08'1 1.5 1016.7 22.9
2015-Sep-11 23:00S 26°24' E 045°10'2 2.3 1016.5 22.9
2015-Sep-11 22:00S 26°25' E 045°12'2 1.9 1016.4 23.1
2015-Sep-11 21:00S 26°26' E 045°14'1 1.2 1016.3 23.3
2015-Sep-11 20:00S 26°27' E 045°15'1 0.7 1015.9 23.4
2015-Sep-11 19:00S 26°27' E 045°15'1 0.6 1015.7 23.5
2015-Sep-11 18:00S 26°27' E 045°16'1 0.8 1015.6 23.5
2015-Sep-11 17:00S 26°27' E 045°17'0 0.4 1015.7 23.5
2015-Sep-11 16:00S 26°27' E 045°17'0 0.5 1015.4 23.5
2015-Sep-11 15:00S 26°26' E 045°17'1 1.1 1015.1 23.7
2015-Sep-11 14:00S 26°26' E 045°18'1 1.4 1014.7 23.8
2015-Sep-11 13:00S 26°25' E 045°20'2 1.8 1014.1 23.7
2015-Sep-11 12:00S 26°25' E 045°21'2 2.0 1014.7 23.7
2015-Sep-11 11:00S 26°24' E 045°24'2 2.2 1015.4 24.0
2015-Sep-11 10:00S 26°24' E 045°26'2 1.8 1016.4 23.9
2015-Sep-11 09:00S 26°24' E 045°28'1 1.1 1017.2 23.5
2015-Sep-11 08:00S 26°23' E 045°29'1 0.7 1018.0 23.5
2015-Sep-11 07:00S 26°23' E 045°30'1 0.5 1018.8 23.3
2015-Sep-11 06:00S 26°23' E 045°30'1 0.9 1018.9 23.1
2015-Sep-11 05:00S 26°22' E 045°31'1 1.2 1018.7 23.1
2015-Sep-11 04:00S 26°22' E 045°33'   1018.5 23.0

Dump ship's entire track history